createdAt,value
2022-11-05T00:00:37.735Z,8.85
2022-11-05T00:03:28.059Z,7.95
2022-11-05T00:06:14.490Z,8.27
2022-11-05T00:09:00.278Z,8.35
2022-11-05T00:11:46.812Z,8.23
2022-11-05T00:14:32.874Z,7.88
2022-11-05T00:17:00.531Z,8.13
2022-11-05T00:19:27.984Z,8.32
2022-11-05T00:22:14.408Z,7.95
2022-11-05T00:25:00.542Z,8.38
2022-11-05T00:27:28.537Z,8.05
2022-11-05T00:29:55.893Z,8.65
2022-11-05T00:32:23.595Z,8.00
2022-11-05T00:34:50.909Z,8.60
2022-11-05T00:37:18.536Z,7.55
2022-11-05T00:39:45.881Z,8.02
2022-11-05T00:42:32.016Z,8.10
2022-11-05T00:45:00.785Z,7.70
2022-11-05T00:47:47.956Z,7.63
2022-11-05T00:50:15.528Z,7.85
2022-11-05T00:53:01.319Z,7.80
2022-11-05T00:55:33.279Z,7.30
2022-11-05T00:58:03.068Z,7.95
2022-11-05T01:00:32.341Z,7.88
2022-11-05T01:03:06.468Z,7.97
2022-11-05T01:05:35.035Z,7.68
2022-11-05T01:08:02.693Z,7.63
2022-11-05T01:10:30.477Z,7.63
2022-11-05T01:12:59.030Z,7.20
2022-11-05T01:15:26.505Z,7.50
2022-11-05T01:17:54.125Z,7.65
2022-11-05T01:20:21.778Z,7.65
2022-11-05T01:22:49.368Z,7.03
2022-11-05T01:25:16.874Z,7.18
2022-11-05T01:27:44.704Z,7.72
2022-11-05T01:30:12.693Z,6.82
2022-11-05T01:32:40.644Z,7.63
2022-11-05T01:35:11.104Z,7.20
2022-11-05T01:37:39.659Z,7.20
2022-11-05T01:40:08.992Z,7.32
2022-11-05T01:42:36.585Z,6.80
2022-11-05T01:45:06.763Z,7.57
2022-11-05T01:48:02.453Z,7.07
2022-11-05T01:50:49.896Z,7.25
2022-11-05T01:53:40.791Z,6.93
2022-11-05T01:56:09.621Z,7.03
2022-11-05T01:58:53.151Z,6.55
2022-11-05T02:01:20.885Z,7.45
2022-11-05T02:03:53.525Z,7.18
2022-11-05T02:06:21.503Z,6.95
2022-11-05T02:09:06.401Z,6.88
2022-11-05T02:11:34.131Z,7.05
2022-11-05T02:14:01.891Z,6.88
2022-11-05T02:16:38.298Z,6.70
2022-11-05T02:19:39.932Z,6.38
2022-11-05T02:22:17.480Z,6.70
2022-11-05T02:25:01.991Z,6.22
2022-11-05T02:28:03.291Z,6.55
2022-11-05T02:31:01.760Z,6.30
2022-11-05T02:33:41.151Z,6.32
2022-11-05T02:36:40.864Z,6.30
2022-11-05T02:39:37.765Z,6.40
2022-11-05T02:42:26.488Z,5.97
2022-11-05T02:45:11.123Z,6.80
2022-11-05T02:47:45.304Z,6.13
2022-11-05T02:50:24.066Z,6.43
2022-11-05T02:52:58.222Z,6.25
2022-11-05T02:55:40.072Z,5.95
2022-11-05T02:58:08.544Z,6.43
2022-11-05T03:00:48.272Z,5.97
2022-11-05T03:03:26.934Z,6.30
2022-11-05T03:06:18.498Z,6.00
2022-11-05T03:09:24.990Z,6.05
2022-11-05T03:14:36.268Z,5.53
2022-11-05T03:17:09.415Z,6.28
2022-11-05T03:20:19.347Z,6.03
2022-11-05T03:23:01.569Z,5.97
2022-11-05T03:25:32.304Z,5.93
2022-11-05T03:28:05.551Z,6.22
2022-11-05T03:30:35.544Z,6.00
2022-11-05T03:33:09.048Z,5.50
2022-11-05T03:35:41.855Z,5.40
2022-11-05T03:38:32.852Z,5.70
2022-11-05T03:41:06.532Z,6.32
2022-11-05T03:43:38.266Z,5.68
2022-11-05T03:46:27.495Z,5.70
2022-11-05T03:48:58.348Z,5.65
2022-11-05T03:51:42.538Z,5.50
2022-11-05T03:54:10.827Z,5.85
2022-11-05T03:56:44.507Z,5.50
2022-11-05T03:59:13.841Z,5.50
2022-11-05T04:01:42.121Z,5.22
2022-11-05T04:04:09.914Z,5.70
2022-11-05T04:06:56.067Z,5.10
2022-11-05T04:09:42.278Z,5.72
2022-11-05T04:12:31.388Z,5.30
2022-11-05T04:14:59.288Z,4.90
2022-11-05T04:17:26.928Z,5.40
2022-11-05T04:20:12.924Z,5.50
2022-11-05T04:22:59.116Z,5.45
2022-11-05T04:25:26.540Z,5.00
2022-11-05T04:28:00.375Z,5.75
2022-11-05T04:30:27.879Z,5.20
2022-11-05T04:32:55.383Z,4.43
2022-11-05T04:35:23.091Z,5.30
2022-11-05T04:37:50.503Z,4.93
2022-11-05T04:40:18.056Z,5.07
2022-11-05T04:42:45.312Z,4.90
2022-11-05T04:45:12.944Z,5.00
2022-11-05T04:47:40.244Z,5.30
2022-11-05T04:50:10.410Z,5.10
2022-11-05T04:52:37.941Z,5.05
2022-11-05T04:55:05.860Z,4.35
2022-11-05T04:57:33.220Z,4.30
2022-11-05T05:00:01.284Z,4.95
2022-11-05T05:02:28.951Z,4.55
2022-11-05T05:04:56.556Z,4.88
2022-11-05T05:07:23.998Z,4.40
2022-11-05T05:09:51.579Z,4.60
2022-11-05T05:12:18.872Z,4.97
2022-11-05T05:14:48.582Z,4.97
2022-11-05T05:17:16.556Z,4.88
2022-11-05T05:20:03.197Z,4.55
2022-11-05T05:22:30.456Z,4.60
2022-11-05T05:24:59.833Z,4.60
2022-11-05T05:27:31.047Z,4.88
2022-11-05T05:29:59.821Z,4.40
2022-11-05T05:32:27.241Z,4.35
2022-11-05T05:34:54.852Z,4.40
2022-11-05T05:37:22.661Z,4.65
2022-11-05T05:39:50.347Z,4.13
2022-11-05T05:42:17.765Z,4.85
2022-11-05T05:44:45.407Z,4.07
2022-11-05T05:47:15.792Z,4.30
2022-11-05T05:49:43.419Z,4.30
2022-11-05T05:52:10.777Z,4.43
2022-11-05T05:54:42.432Z,4.00
2022-11-05T05:57:10.751Z,4.13
2022-11-05T05:59:38.391Z,4.32
2022-11-05T06:02:05.900Z,4.30
2022-11-05T06:04:33.679Z,4.38
2022-11-05T06:07:00.926Z,4.05
2022-11-05T06:09:28.827Z,4.53
2022-11-05T06:11:56.164Z,4.00
2022-11-05T06:14:23.791Z,4.55
2022-11-05T06:16:51.116Z,4.18
2022-11-05T06:19:18.834Z,3.97
2022-11-05T06:21:46.868Z,4.10
2022-11-05T06:24:14.563Z,3.88
2022-11-05T06:26:43.215Z,3.78
2022-11-05T06:29:10.899Z,4.10
2022-11-05T06:31:38.174Z,4.13
2022-11-05T06:34:05.991Z,3.70
2022-11-05T06:36:33.524Z,4.03
2022-11-05T06:39:01.223Z,3.60
2022-11-05T06:41:28.566Z,3.53
2022-11-05T06:43:56.226Z,4.05
2022-11-05T06:46:23.455Z,3.55
2022-11-05T06:48:51.180Z,3.30
2022-11-05T06:51:19.291Z,3.90
2022-11-05T06:53:46.878Z,4.93
2022-11-05T06:56:14.119Z,4.28
2022-11-05T06:58:41.792Z,4.60
2022-11-05T07:01:10.680Z,4.50
2022-11-05T07:03:39.123Z,4.20
2022-11-05T07:06:07.588Z,4.20
2022-11-05T07:08:37.444Z,4.50
2022-11-05T07:11:05.004Z,4.40
2022-11-05T07:13:33.826Z,4.03
2022-11-05T07:16:01.257Z,4.30
2022-11-05T07:18:28.819Z,3.95
2022-11-05T07:20:56.239Z,4.13
2022-11-05T07:23:23.749Z,4.00
2022-11-05T07:25:51.162Z,3.72
2022-11-05T07:28:18.956Z,3.97
2022-11-05T07:30:46.347Z,3.92
2022-11-05T07:33:14.715Z,4.25
2022-11-05T07:35:42.234Z,4.40
2022-11-05T07:38:10.739Z,4.43
2022-11-05T07:40:38.410Z,4.55
2022-11-05T07:43:06.012Z,4.82
2022-11-05T07:45:33.304Z,5.05
2022-11-05T07:48:02.375Z,5.13
2022-11-05T07:50:32.507Z,4.88
2022-11-05T07:53:10.455Z,5.30
2022-11-05T07:55:38.228Z,5.10
2022-11-05T07:58:06.250Z,5.63
2022-11-05T08:00:34.112Z,5.70
2022-11-05T08:03:16.672Z,5.30
2022-11-05T08:05:46.789Z,5.07
2022-11-05T08:08:17.169Z,5.30
2022-11-05T08:10:45.244Z,5.15
2022-11-05T08:13:14.155Z,5.57
2022-11-05T08:15:42.846Z,5.55
2022-11-05T08:18:16.307Z,6.05
2022-11-05T08:20:45.102Z,5.43
2022-11-05T08:23:13.454Z,5.75
2022-11-05T08:25:41.983Z,6.05
2022-11-05T08:28:12.151Z,6.03
2022-11-05T08:30:40.016Z,5.75
2022-11-05T08:33:11.059Z,6.43
2022-11-05T08:35:40.132Z,6.65
2022-11-05T08:38:13.576Z,6.80
2022-11-05T08:40:42.088Z,6.43
2022-11-05T08:43:12.516Z,5.70
2022-11-05T08:45:41.471Z,5.88
2022-11-05T08:48:12.352Z,5.97
2022-11-05T08:50:39.755Z,5.53
2022-11-05T08:53:09.263Z,5.88
2022-11-05T08:55:38.367Z,6.35
2022-11-05T08:58:10.662Z,5.65
2022-11-05T09:00:39.294Z,5.57
2022-11-05T09:03:08.445Z,6.78
2022-11-05T09:05:38.266Z,5.20
2022-11-05T09:08:08.217Z,5.20
2022-11-05T09:10:35.948Z,5.57
2022-11-05T09:13:04.350Z,5.40
2022-11-05T09:15:32.278Z,5.32
2022-11-05T09:18:00.047Z,4.95
2022-11-05T09:20:28.884Z,6.05
2022-11-05T09:22:56.486Z,5.72
2022-11-05T09:25:24.269Z,5.32
2022-11-05T09:27:51.952Z,5.78
2022-11-05T09:30:19.600Z,5.05
2022-11-05T09:32:47.258Z,5.30
2022-11-05T09:35:14.628Z,5.13
2022-11-05T09:37:42.272Z,5.18
2022-11-05T09:40:16.919Z,4.97
2022-11-05T09:45:20.234Z,4.93
2022-11-05T09:47:56.535Z,5.10
2022-11-05T09:50:39.014Z,5.80
2022-11-05T09:53:07.384Z,5.55
2022-11-05T09:55:41.967Z,4.80
2022-11-05T09:58:44.042Z,5.43
2022-11-05T10:01:15.996Z,4.63
2022-11-05T10:03:48.723Z,4.93
2022-11-05T10:06:21.567Z,5.35
2022-11-05T10:09:09.121Z,4.90
2022-11-05T10:11:46.105Z,4.90
2022-11-05T10:14:21.936Z,4.80
2022-11-05T10:16:55.853Z,4.55
2022-11-05T10:19:27.156Z,4.60
2022-11-05T10:22:16.530Z,5.10
2022-11-05T10:24:47.678Z,6.95
2022-11-05T10:27:19.656Z,4.70
2022-11-05T10:29:49.394Z,5.43
2022-11-05T10:32:39.333Z,5.13
2022-11-05T10:35:12.716Z,5.32
2022-11-05T10:37:41.347Z,4.97
2022-11-05T10:40:33.857Z,4.38
2022-11-05T10:43:10.751Z,4.63
2022-11-05T10:45:52.478Z,4.30
2022-11-05T10:48:40.728Z,4.78
2022-11-05T10:51:11.660Z,4.57
2022-11-05T10:53:42.080Z,4.47
2022-11-05T10:56:39.051Z,4.70
2022-11-05T10:59:20.468Z,4.60
2022-11-05T11:01:55.190Z,4.00
2022-11-05T11:04:25.676Z,4.63
2022-11-05T11:06:55.654Z,4.55
2022-11-05T11:09:36.104Z,4.50
2022-11-05T11:12:21.639Z,4.20
2022-11-05T11:15:03.113Z,4.45
2022-11-05T11:17:32.347Z,4.00
2022-11-05T11:20:23.928Z,4.82
2022-11-05T11:23:00.731Z,4.65
2022-11-05T11:25:52.893Z,4.90
2022-11-05T11:28:26.412Z,4.20
2022-11-05T11:31:09.532Z,4.40
2022-11-05T11:33:39.226Z,3.88
2022-11-05T11:36:09.171Z,4.40
2022-11-05T11:38:37.428Z,4.20
2022-11-05T11:41:16.629Z,4.10
2022-11-05T11:43:45.151Z,3.90
2022-11-05T11:46:18.822Z,4.18
2022-11-05T11:48:49.051Z,4.03
2022-11-05T11:51:30.099Z,4.10
2022-11-05T11:54:00.044Z,4.20
2022-11-05T11:56:30.255Z,4.10
2022-11-05T11:59:02.791Z,4.05
2022-11-05T12:01:53.856Z,3.90
2022-11-05T12:04:47.180Z,4.38
2022-11-05T12:07:20.524Z,4.22
2022-11-05T12:10:19.037Z,4.07
2022-11-05T12:13:16.977Z,4.03
2022-11-05T12:15:54.695Z,3.80
2022-11-05T12:18:26.090Z,3.80
2022-11-05T12:21:48.132Z,4.28
2022-11-05T12:24:14.538Z,3.95
2022-11-05T12:27:03.753Z,3.75
2022-11-05T12:29:46.423Z,3.92
2022-11-05T12:32:33.228Z,4.40
2022-11-05T12:35:21.668Z,4.50
2022-11-05T12:38:11.030Z,4.28
2022-11-05T12:40:56.792Z,4.32
2022-11-05T12:43:56.895Z,3.88
2022-11-05T12:46:29.074Z,4.20
2022-11-05T12:49:11.932Z,4.20
2022-11-05T12:51:57.778Z,4.22
2022-11-05T12:54:37.574Z,4.13
2022-11-05T12:57:07.486Z,3.85
2022-11-05T12:59:41.057Z,3.88
2022-11-05T13:02:22.354Z,4.05
2022-11-05T13:05:15.477Z,3.83
2022-11-05T13:07:55.000Z,4.07
2022-11-05T13:10:45.636Z,3.70
2022-11-05T13:13:26.192Z,3.83
2022-11-05T13:15:59.376Z,3.90
2022-11-05T13:18:48.412Z,3.80
2022-11-05T13:21:19.728Z,3.75
2022-11-05T13:23:54.744Z,4.22
2022-11-05T13:26:57.031Z,3.97
2022-11-05T13:29:42.359Z,3.90
2022-11-05T13:32:10.504Z,3.55
2022-11-05T13:34:37.995Z,3.85
2022-11-05T13:37:25.671Z,3.90
2022-11-05T13:40:00.109Z,3.78
2022-11-05T13:45:21.037Z,4.20
2022-11-05T13:48:11.395Z,4.60
2022-11-05T13:50:52.007Z,4.20
2022-11-05T13:54:03.196Z,3.95
2022-11-05T13:56:53.469Z,3.97
2022-11-05T13:59:39.846Z,3.83
2022-11-05T14:02:18.566Z,4.10
2022-11-05T14:05:00.791Z,4.20
2022-11-05T14:07:32.383Z,3.92
2022-11-05T14:10:24.903Z,4.70
2022-11-05T14:12:55.479Z,4.60
2022-11-05T14:15:26.433Z,3.92
2022-11-05T14:17:58.075Z,4.22
2022-11-05T14:20:31.896Z,3.75
2022-11-05T14:23:17.576Z,4.18
2022-11-05T14:25:45.177Z,3.58
2022-11-05T14:28:36.369Z,3.63
2022-11-05T14:31:19.631Z,3.65
2022-11-05T14:34:11.373Z,3.97
2022-11-05T14:36:41.979Z,3.67
2022-11-05T14:39:32.499Z,4.00
2022-11-05T14:42:27.995Z,3.83
2022-11-05T14:45:02.013Z,3.70
2022-11-05T14:47:34.262Z,3.55
2022-11-05T14:50:18.429Z,3.53
2022-11-05T14:52:57.852Z,3.57
2022-11-05T14:55:29.539Z,3.35
2022-11-05T14:57:57.219Z,3.40
2022-11-05T15:00:45.935Z,4.00
2022-11-05T15:03:47.149Z,3.92
2022-11-05T15:06:20.667Z,3.70
2022-11-05T15:08:48.336Z,3.90
2022-11-05T15:11:32.852Z,3.50
2022-11-05T15:14:15.907Z,3.40
2022-11-05T15:16:47.432Z,3.50
2022-11-05T15:19:24.850Z,3.67
2022-11-05T15:21:54.494Z,3.45
2022-11-05T15:24:23.045Z,3.17
2022-11-05T15:27:01.063Z,3.05
2022-11-05T15:29:30.564Z,3.50
2022-11-05T15:31:58.568Z,3.72
2022-11-05T15:34:35.550Z,3.10
2022-11-05T15:37:20.872Z,3.92
2022-11-05T15:39:50.500Z,3.22
2022-11-05T15:42:25.270Z,3.67
2022-11-05T15:44:54.648Z,3.58
2022-11-05T15:47:24.853Z,3.40
2022-11-05T15:50:03.897Z,3.88
2022-11-05T15:52:44.116Z,3.30
2022-11-05T15:55:14.328Z,3.80
2022-11-05T15:57:50.971Z,3.83
2022-11-05T16:00:20.548Z,3.70
2022-11-05T16:03:18.554Z,3.55
2022-11-05T16:05:48.233Z,3.50
2022-11-05T16:08:24.544Z,3.88
2022-11-05T16:10:57.532Z,3.47
2022-11-05T16:13:33.128Z,3.75
2022-11-05T16:16:24.310Z,3.30
2022-11-05T16:18:52.841Z,4.43
2022-11-05T16:21:23.175Z,4.10
2022-11-05T16:23:59.318Z,3.72
2022-11-05T16:27:06.874Z,3.58
2022-11-05T16:29:55.456Z,3.80
2022-11-05T16:32:31.685Z,3.75
2022-11-05T16:35:02.924Z,3.25
2022-11-05T16:37:39.992Z,3.50
2022-11-05T16:40:33.954Z,4.28
2022-11-05T16:43:15.216Z,3.85
2022-11-05T16:45:43.022Z,3.35
2022-11-05T16:48:15.164Z,3.47
2022-11-05T16:50:44.052Z,3.55
2022-11-05T16:53:12.182Z,3.85
2022-11-05T16:55:42.039Z,3.55
2022-11-05T16:58:24.304Z,3.53
2022-11-05T17:00:56.031Z,3.83
2022-11-05T17:03:23.588Z,3.50
2022-11-05T17:05:51.256Z,3.78
2022-11-05T17:08:18.800Z,4.07
2022-11-05T17:10:46.448Z,3.55
2022-11-05T17:13:18.964Z,3.95
2022-11-05T17:15:49.496Z,4.10
2022-11-05T17:18:19.097Z,3.55
2022-11-05T17:20:52.840Z,3.50
2022-11-05T17:23:23.731Z,3.35
2022-11-05T17:25:53.773Z,3.42
2022-11-05T17:28:22.317Z,3.90
2022-11-05T17:30:52.860Z,3.65
2022-11-05T17:33:23.639Z,3.63
2022-11-05T17:35:52.591Z,3.65
2022-11-05T17:38:21.687Z,3.60
2022-11-05T17:40:49.902Z,3.58
2022-11-05T17:43:17.591Z,3.65
2022-11-05T17:45:48.696Z,3.75
2022-11-05T17:48:16.731Z,4.00
2022-11-05T17:50:47.029Z,3.70
2022-11-05T17:53:16.279Z,3.63
2022-11-05T17:55:46.210Z,3.45
2022-11-05T17:58:14.094Z,3.35
2022-11-05T18:00:44.470Z,3.30
2022-11-05T18:03:12.361Z,3.90
2022-11-05T18:05:41.138Z,3.60
2022-11-05T18:08:09.533Z,3.70
2022-11-05T18:10:38.741Z,3.50
2022-11-05T18:13:06.556Z,3.67
2022-11-05T18:15:35.530Z,2.88
2022-11-05T18:18:03.033Z,3.60
2022-11-05T18:20:31.075Z,3.17
2022-11-05T18:22:58.425Z,3.65
2022-11-05T18:25:26.467Z,4.10
2022-11-05T18:27:53.746Z,5.40
2022-11-05T18:30:21.541Z,5.80
2022-11-05T18:32:50.943Z,5.97
2022-11-05T18:35:18.672Z,5.95
2022-11-05T18:37:46.027Z,5.88
2022-11-05T18:40:13.739Z,5.72
2022-11-05T18:42:41.720Z,5.72
2022-11-05T18:45:10.435Z,7.30
2022-11-05T18:47:37.901Z,5.45
2022-11-05T18:50:07.087Z,5.70
2022-11-05T18:52:37.209Z,5.57
2022-11-05T18:55:05.409Z,5.45
2022-11-05T18:57:34.340Z,6.15
2022-11-05T19:00:02.310Z,5.38
2022-11-05T19:02:29.912Z,5.60
2022-11-05T19:05:27.562Z,5.43
2022-11-05T19:07:45.245Z,5.55
2022-11-05T19:10:15.477Z,5.50
2022-11-05T19:12:43.354Z,5.30
2022-11-05T19:15:11.313Z,5.50
2022-11-05T19:17:38.823Z,6.00
2022-11-05T19:20:07.516Z,5.40
2022-11-05T19:22:34.905Z,5.53
2022-11-05T19:25:03.008Z,5.43
2022-11-05T19:27:30.699Z,5.75
2022-11-05T19:29:58.406Z,5.38
2022-11-05T19:32:25.698Z,5.53
2022-11-05T19:34:53.510Z,4.97
2022-11-05T19:37:20.862Z,5.28
2022-11-05T19:39:48.573Z,4.78
2022-11-05T19:42:15.994Z,5.25
2022-11-05T19:44:44.151Z,5.68
2022-11-05T19:47:11.520Z,5.85
2022-11-05T19:49:39.278Z,5.10
2022-11-05T19:52:06.746Z,4.93
2022-11-05T19:54:35.948Z,5.05
2022-11-05T19:57:03.454Z,5.22
2022-11-05T19:59:31.117Z,4.90
2022-11-05T20:01:58.636Z,5.13
2022-11-05T20:04:26.520Z,4.57
2022-11-05T20:06:54.993Z,5.18
2022-11-05T20:09:24.206Z,5.28
2022-11-05T20:11:56.502Z,4.85
2022-11-05T20:14:25.995Z,5.28
2022-11-05T20:16:53.833Z,5.28
2022-11-05T20:19:24.573Z,5.35
2022-11-05T20:21:52.361Z,4.65
2022-11-05T20:24:25.368Z,5.18
2022-11-05T20:26:55.222Z,5.43
2022-11-05T20:29:27.822Z,5.30
2022-11-05T20:31:58.353Z,5.75
2022-11-05T20:34:30.354Z,5.15
2022-11-05T20:36:57.797Z,5.70
2022-11-05T20:39:25.749Z,5.40
2022-11-05T20:41:53.430Z,5.13
2022-11-05T20:44:21.236Z,5.55
2022-11-05T20:46:48.827Z,4.93
2022-11-05T20:49:22.531Z,5.43
2022-11-05T20:51:52.769Z,4.97
2022-11-05T20:54:20.980Z,5.15
2022-11-05T20:56:48.395Z,4.93
2022-11-05T20:59:15.956Z,5.30
2022-11-05T21:01:43.904Z,5.07
2022-11-05T21:04:11.673Z,5.13
2022-11-05T21:06:39.125Z,5.05
2022-11-05T21:09:06.861Z,4.82
2022-11-05T21:11:54.160Z,4.68
2022-11-05T21:14:22.648Z,4.85
2022-11-05T21:16:49.939Z,4.53
2022-11-05T21:19:17.804Z,5.35
2022-11-05T21:21:45.147Z,4.50
2022-11-05T21:24:12.780Z,4.78
2022-11-05T21:26:40.131Z,4.95
2022-11-05T21:29:07.950Z,5.25
2022-11-05T21:31:37.595Z,4.60
2022-11-05T21:34:05.380Z,5.03
2022-11-05T21:36:32.661Z,5.15
2022-11-05T21:39:00.287Z,4.45
2022-11-05T21:41:27.742Z,4.47
2022-11-05T21:43:55.348Z,4.68
2022-11-05T21:46:22.656Z,4.63
2022-11-05T21:48:50.354Z,4.18
2022-11-05T21:51:36.277Z,4.55
2022-11-05T21:54:22.915Z,4.45
2022-11-05T21:57:10.920Z,4.80
2022-11-05T21:59:47.901Z,4.30
2022-11-05T22:02:20.802Z,4.68
2022-11-05T22:04:52.806Z,5.03
2022-11-05T22:07:26.320Z,4.47
2022-11-05T22:09:54.737Z,4.53
2022-11-05T22:12:23.126Z,4.40
2022-11-05T22:14:51.664Z,4.13
2022-11-05T22:17:20.348Z,4.68
2022-11-05T22:19:47.959Z,5.13
2022-11-05T22:22:15.748Z,4.45
2022-11-05T22:24:43.933Z,4.45
2022-11-05T22:27:15.231Z,4.43
2022-11-05T22:29:43.195Z,4.75
2022-11-05T22:32:11.075Z,4.35
2022-11-05T22:34:38.997Z,4.32
2022-11-05T22:37:07.152Z,4.50
2022-11-05T22:39:34.795Z,4.28
2022-11-05T22:42:08.052Z,4.47
2022-11-05T22:44:36.866Z,4.83
2022-11-05T22:47:04.339Z,4.70
2022-11-05T22:49:32.138Z,4.50
2022-11-05T22:51:59.529Z,4.40
2022-11-05T22:54:27.298Z,4.43
2022-11-05T22:56:54.634Z,4.45
2022-11-05T22:59:22.392Z,4.97
2022-11-05T23:01:49.844Z,4.32
2022-11-05T23:04:17.703Z,4.20
2022-11-05T23:07:03.189Z,5.10
2022-11-05T23:09:52.831Z,4.15
2022-11-05T23:12:21.972Z,4.20
2022-11-05T23:14:50.851Z,4.40
2022-11-05T23:17:36.819Z,4.13
2022-11-05T23:20:25.495Z,4.22
2022-11-05T23:23:11.544Z,3.95
2022-11-05T23:25:39.141Z,4.18
2022-11-05T23:28:10.242Z,4.38
2022-11-05T23:31:01.494Z,4.30
2022-11-05T23:33:32.624Z,4.25
2022-11-05T23:36:19.039Z,4.32
2022-11-05T23:38:46.486Z,4.10
2022-11-05T23:41:32.604Z,4.50
2022-11-05T23:44:19.176Z,4.25
2022-11-05T23:47:05.585Z,4.20
2022-11-05T23:49:32.971Z,4.22
2022-11-05T23:52:00.524Z,4.22
2022-11-05T23:54:27.906Z,4.15
2022-11-05T23:56:55.548Z,3.95
2022-11-05T23:59:23.069Z,4.43
